Latest Coastal Weather Observations for Larapuna (Eddystone Point)

IDT60701

Issued at 1:12 am EDT Saturday 7 March 2015 (issued every 10 minutes, with the page automatically refreshed every 10 minutes)

About coastal observations | Map of coastal stations | Coastal observations for TAS | Marine services | Other Formats
Station Details ID: 092045 Name: LARAPUNA (EDDYSTONE POINT) Lat: -40.99 Lon: 148.35 Height: 19.7 m
Data from the previous 72 hours. | See also: Recent months at Larapuna (Eddystone Point)
Date/Time
EDT
Temp

°C
Wind Pressure Rain
since 9am
mm
Weather Cloud Vis
km
Sea
Height
m
Swell
Dir
 
Speed
knots
Gust
knots
hPa Trend Height
m
Period
s
Dir
07/01:00am 14.2 NE 7 10 1008.3 - 0.0 - - - - - - -
07/12:30am 14.0 ENE 6 8 1008.4 - 0.0 - - - - - - -
07/12:00am 14.0 E 5 9 1008.4 - 0.0 - - - - - - -
 
Date/Time
EDT
Temp

°C
Wind Pressure Rain
since 9am
mm
Weather Cloud Vis
km
Sea
Height
m
Swell
Dir
 
Speed
knots
Gust
knots
hPa Trend Height
m
Period
s
Dir
06/11:30pm 14.1 ESE 7 9 1008.2 - 0.0 - - - - - - -
06/11:00pm 14.0 ESE 8 11 1008.3 - 0.0 - - - - - - -
06/10:30pm 14.3 SE 7 9 1008.4 - 0.0 - - - - - - -
06/10:00pm 14.5 SE 7 11 1008.4 - 0.0 - - - - - - -
06/09:30pm 14.5 SE 8 11 1008.3 - 0.0 - - - - - - -
06/09:00pm 14.4 SE 11 14 1007.8 - 0.0 - - - - - - -
06/08:30pm 14.3 SSE 11 15 1007.3 - 0.0 - - - - - - -
06/08:00pm 14.1 SSE 14 17 1006.8 - 0.0 - - - - - - -
06/07:30pm 14.3 SSE 13 17 1006.3 - 0.0 - - - - - - -
06/07:00pm 14.8 SSE 15 19 1006.0 - 0.0 - - - - - - -
06/06:30pm 15.3 SSE 16 19 1005.8 - 0.0 - - - - - - -
06/06:00pm 15.6 SSE 18 22 1005.1 - 0.0 - - - - - - -
06/05:30pm 16.0 SSE 19 24 1004.9 - 0.0 - - - - - - -
06/05:00pm 16.5 SSE 19 24 1004.4 - 0.0 - - - - - - -
06/04:30pm 16.8 SSE 23 28 1003.7 - 0.0 - - - - - - -
06/04:00pm 16.7 SSE 26 32 1003.3 - 0.0 - - - - - - -
06/03:30pm 16.6 SSE 27 32 1002.6 - 0.0 - - - - - - -
06/03:00pm 17.0 SSE 27 32 1002.3 - 0.0 - - - - - - -
06/02:30pm 17.6 SSE 26 32 1002.0 - 0.0 - - - - - - -
06/02:00pm 18.8 S 25 30 1001.3 - 0.0 - - - - - - -
06/01:30pm 20.2 S 24 29 1000.8 - 0.0 - - - - - - -
06/01:00pm 19.9 S 24 29 1000.6 - 0.0 - - - - - - -
06/12:30pm 19.3 S 26 31 1000.0 - 0.0 - - - - - - -
06/12:00pm 19.2 S 25 31 999.8 - 0.0 - - - - - - -
06/11:30am 19.1 S 27 31 999.4 - 0.0 - - - - - - -
06/11:00am 19.0 S 25 30 999.0 - 0.0 - - - - - - -
06/10:30am 19.5 S 21 25 998.6 - 0.0 - - - - - - -
06/10:17am 19.5 S 16 25 998.1 - 0.0 - - - - - - -
06/10:00am 19.7 S 13 15 997.9 - 0.0 - - - - - - -
06/09:30am 19.4 S 9 11 997.2 - 0.0 - - - - - - -
06/09:00am 18.2 SW 11 14 996.7 - 0.0 - - - - - - -
06/08:30am 17.1 W 13 17 995.7 - 0.0 - - - - - - -
06/08:00am 16.1 WNW 11 16 995.1 - 0.0 - - - - - - -
06/07:30am 15.4 WNW 14 19 994.6 - 0.0 - - - - - - -
06/07:00am 15.3 WNW 12 16 994.0 - 0.0 - - - - - - -
06/06:30am 15.4 WNW 16 21 993.7 - 0.0 - - - - - - -
06/06:00am 15.5 WNW 14 19 993.6 - 0.0 - - - - - - -
06/05:30am 15.6 W 15 22 993.9 - 0.0 - - - - - - -
06/05:05am 15.6 WNW 15 26 993.6 - 0.0 - - - - - - -
06/05:00am 15.6 WNW 16 24 993.7 - 0.0 - - - - - - -
06/04:30am 15.4 WNW 15 27 993.8 - 0.0 - - - - - - -
06/04:12am 15.3 WNW 16 28 993.7 - 0.0 - - - - - - -
06/04:00am 15.2 WNW 16 25 994.1 - 0.0 - - - - - - -
06/03:30am 15.1 WNW 25 39 993.8 - 0.0 - - - - - - -
06/03:00am 14.7 WNW 24 40 993.7 - 0.0 - - - - - - -
06/02:30am 14.6 WNW 20 31 995.6 - 0.0 - - - - - - -
06/02:00am 14.5 WNW 23 38 995.9 - 0.0 - - - - - - -
06/01:30am 14.4 WNW 21 31 997.1 - 0.0 - - - - - - -
06/01:00am 14.2 WNW 20 31 998.3 - 0.0 - - - - - - -
06/12:30am 14.1 WNW 22 40 998.3 - 0.0 - - - - - - -
06/12:00am 13.8 WNW 22 32 998.9 - 0.0 - - - - - - -
 
Date/Time
EDT
Temp

°C
Wind Pressure Rain
since 9am
mm
Weather Cloud Vis
km
Sea
Height
m
Swell
Dir
 
Speed
knots
Gust
knots
hPa Trend Height
m
Period
s
Dir
05/11:30pm 13.7 WNW 21 32 999.8 - 0.0 - - - - - - -
05/11:00pm 13.7 WNW 24 37 1000.5 - 0.0 - - - - - - -
05/10:30pm 13.6 WNW 22 34 1001.0 - 0.0 - - - - - - -
05/10:00pm 13.6 W 21 31 1001.9 - 0.0 - - - - - - -
05/09:30pm 13.4 WNW 20 31 1002.3 - 0.0 - - - - - - -
05/09:09pm 13.5 WNW 18 28 1002.9 - 0.0 - - - - - - -
05/09:00pm 13.3 WNW 19 27 1002.6 - 0.0 - - - - - - -
05/08:30pm 13.6 WNW 20 31 1002.6 - 0.0 - - - - - - -
05/08:01pm 14.0 WNW 19 30 1003.3 - 0.0 - - - - - - -
05/08:00pm 14.0 WNW 19 27 1003.3 - 0.0 - - - - - - -
05/07:30pm 14.2 W 18 28 1003.8 - 0.0 - - - - - - -
05/07:00pm 15.0 W 19 29 1004.7 - 0.0 - - - - - - -
05/06:30pm 15.3 WNW 22 32 1004.6 - 0.0 - - - - - - -
05/06:04pm 15.9 WNW 23 33 1004.9 - 0.0 - - - - - - -
05/06:00pm 15.7 WNW 25 34 1005.0 - 0.0 - - - - - - -
05/05:33pm 16.3 WNW 22 32 1004.7 - 0.0 - - - - - - -
05/05:30pm 16.1 WNW 23 32 1004.7 - 0.0 - - - - - - -
05/05:01pm 16.8 WNW 25 37 1004.5 - 0.0 - - - - - - -
05/05:00pm 16.9 WNW 24 33 1004.5 - 0.0 - - - - - - -
05/04:30pm 17.7 WNW 23 35 1004.7 - 0.0 - - - - - - -
05/04:02pm 17.6 W 23 34 1005.0 - 0.0 - - - - - - -
05/04:00pm 18.4 W 22 30 1005.0 - 0.0 - - - - - - -
05/03:51pm 18.9 W 17 29 1005.1 - 0.0 - - - - - - -
05/03:30pm 19.0 W 18 25 1005.6 - 0.0 - - - - - - -
05/03:09pm 19.0 W 16 26 1005.9 - 0.0 - - - - - - -
05/03:00pm 19.4 W 14 24 1006.3 - 0.0 - - - - - - -
05/02:30pm 18.3 W 17 23 1006.5 - 0.0 - - - - - - -
05/02:17pm 18.3 W 15 26 1006.7 - 0.0 - - - - - - -
05/02:00pm 18.0 W 14 21 1006.7 - 0.0 - - - - - - -
05/01:33pm 18.1 W 17 27 1007.0 - 0.0 - - - - - - -
05/01:30pm 18.0 WSW 20 27 1007.1 - 0.0 - - - - - - -
05/01:19pm 17.7 WSW 15 28 1007.0 - 0.0 - - - - - - -
05/01:00pm 17.4 W 18 25 1007.0 - 0.0 - - - - - - -
05/12:30pm 17.9 SW 15 21 1007.0 - 0.0 - - - - - - -
05/12:14pm 17.8 SW 15 25 1007.2 - 0.0 - - - - - - -
05/12:04pm 16.9 SSW 18 24 1007.1 - 0.0 - - - - - - -
05/12:01pm 17.6 SSW 20 30 1007.1 - 0.0 - - - - - - -
05/12:00pm 17.6 SSW 21 30 1007.1 - 0.0 - - - - - - -
05/11:44am 16.6 SW 20 30 1006.8 - 0.0 - - - - - - -
05/11:30am 16.5 SW 20 28 1006.8 - 0.0 - - - - - - -
05/11:00am 15.3 SW 23 34 1006.6 - 0.0 - - - - - - -
05/10:58am 16.1 SW 22 34 1006.5 - 0.0 - - - - - - -
05/10:30am 15.5 SW 20 24 1006.2 - 0.0 - - - - - - -
05/10:00am 14.2 SW 24 33 1005.3 - 0.0 - - - - - - -
05/09:53am 14.0 WSW 15 27 1005.3 - 0.0 - - - - - - -
05/09:30am 13.3 W 14 20 1005.0 - 0.0 - - - - - - -
05/09:00am 11.9 W 14 18 1004.3 - 1.6 - - - - - - -
05/08:30am 11.4 WNW 12 15 1004.0 - 1.6 - - - - - - -
05/08:00am 10.5 WNW 9 12 1003.0 - 1.6 - - - - - - -
05/07:30am 10.3 WSW 10 13 1002.1 - 1.6 - - - - - - -
05/07:00am 9.9 W 10 13 1000.9 - 1.6 - - - - - - -
05/06:30am 11.1 WSW 17 21 999.7 - 1.6 - - - - - - -
05/06:00am 10.9 WSW 17 23 998.6 - 1.6 - - - - - - -
05/05:30am 11.3 WSW 17 22 997.9 - 1.6 - - - - - - -
05/05:11am 11.1 WNW 18 29 997.3 - 1.6 - - - - - - -
05/05:00am 11.2 WNW 18 26 997.3 - 1.6 - - - - - - -
05/04:30am 11.7 WNW 18 26 996.6 - 1.6 - - - - - - -
05/04:00am 12.0 WNW 16 26 996.5 - 1.6 - - - - - - -
05/03:30am 12.2 WNW 15 21 996.4 - 1.6 - - - - - - -
05/03:00am 12.2 WNW 16 21 996.6 - 1.6 Recent precip. - - - - - -
05/02:30am 12.5 WNW 16 25 997.1 - 1.6 - - - - - - -
05/02:00am 12.7 WNW 18 25 997.2 - 1.4 - - - - - - -
05/01:30am 13.7 WNW 21 33 997.9 - 1.0 - - - - - - -
05/01:07am 14.1 NW 19 29 997.7 - 0.4 - - - - - - -
05/01:00am 14.0 WNW 20 29 997.9 - 0.4 - - - - - - -
05/12:48am 13.8 WNW 20 30 997.9 - 0.4 - - - - - - -
05/12:30am 13.8 WNW 20 29 998.2 - 0.2 - - - - - - -
05/12:10am 14.2 WNW 18 31 998.4 - 0.2 - - - - - - -
05/12:00am 14.3 WNW 19 27 998.8 - 0.2 Recent precip. - - - - - -
 
Date/Time
EDT
Temp

°C
Wind Pressure Rain
since 9am
mm
Weather Cloud Vis
km
Sea
Height
m
Swell
Dir
 
Speed
knots
Gust
knots
hPa Trend Height
m
Period
s
Dir
04/11:31pm 14.5 WNW 18 27 999.0 - 0.2 - - - - - - -
04/11:30pm 14.5 WNW 17 26 999.0 - 0.2 - - - - - - -
04/11:00pm 15.3 NW 29 45 999.3 - 0.0 - - - - - - -
04/10:49pm 16.3 NW 27 44 999.7 - 0.0 - - - - - - -
04/10:48pm 16.7 NW 27 44 999.6 - 0.0 - - - - - - -
04/10:30pm 16.9 NW 22 35 999.9 - 0.0 - - - - - - -
04/10:00pm 16.3 WNW 19 29 1000.6 - 0.0 - - - - - - -
04/09:30pm 16.1 WNW 18 29 1001.3 - 0.0 - - - - - - -
04/09:00pm 16.0 WNW 22 32 1001.3 - 0.0 - - - - - - -
04/08:30pm 16.0 WNW 23 34 1001.3 - 0.0 - - - - - - -
04/08:00pm 16.8 NW 21 34 1001.5 - 0.0 - - - - - - -
04/07:37pm 16.8 WNW 19 35 1001.9 - 0.0 - - - - - - -
04/07:30pm 16.7 NW 18 25 1002.1 - 0.0 - - - - - - -
04/07:00pm 17.1 WNW 22 36 1002.4 - 0.0 - - - - - - -
04/06:30pm 18.0 NW 18 32 1002.7 - 0.0 - - - - - - -
04/06:00pm 17.9 NW 21 31 1003.2 - 0.0 - - - - - - -
04/05:30pm 18.9 NW 22 32 1003.3 - 0.0 - - - - - - -
04/05:00pm 18.7 WNW 26 40 1003.6 - 0.0 - - - - - - -
04/04:30pm 18.0 NW 21 33 1003.7 - 0.0 - - - - - - -
04/04:01pm 17.3 NW 19 33 1004.3 - 0.0 - - - - - - -
04/04:00pm 17.6 NW 18 27 1004.3 - 0.0 - - - - - - -
04/03:30pm 17.4 NW 25 41 1004.5 - 0.0 - - - - - - -
04/03:00pm 16.8 NW 24 37 1005.1 - 0.0 - - - - - - -
04/02:30pm 18.9 WNW 26 36 1005.0 - 0.0 - - - - - - -
04/02:06pm 19.4 NW 22 35 1005.0 - 0.0 - - - - - - -
04/02:00pm 19.7 NW 23 31 1005.1 - 0.0 - - - - - - -
04/01:30pm 18.8 NW 24 37 1005.5 - 0.0 - - - - - - -
04/01:00pm 19.1 NW 24 37 1005.8 - 0.0 - - - - - - -
04/12:30pm 18.8 NW 21 31 1006.2 - 0.0 - - - - - - -
04/12:00pm 17.1 NW 20 30 1007.2 - 0.0 - - - - - - -
04/11:32am 16.7 WNW 21 31 1007.8 - 0.0 - - - - - - -
04/11:30am 16.4 WNW 22 31 1007.8 - 0.0 - - - - - - -
04/11:00am 17.4 WNW 18 29 1008.1 - 0.0 - - - - - - -
04/10:30am 16.5 NW 20 30 1008.5 - 0.0 - - - - - - -
04/10:04am 17.7 NW 17 27 1008.5 - 0.0 - - - - - - -
04/10:00am 17.2 NW 19 27 1008.5 - 0.0 - - - - - - -
04/09:30am 16.6 WNW 17 31 1008.8 - 0.0 - - - - - - -
04/09:23am 16.5 WNW 16 31 1008.8 - 0.0 - - - - - - -
04/09:00am 16.5 NW 16 20 1008.8 - 0.0 - - - - - - -
04/08:30am 15.8 WNW 20 31 1008.9 - 0.0 - - - - - - -
04/08:18am 15.8 WNW 17 27 1008.8 - 0.0 - - - - - - -
04/08:00am 15.7 NW 17 22 1008.7 - 0.0 - - - - - - -
04/07:32am 15.2 WNW 15 25 1008.8 - 0.0 - - - - - - -
04/07:30am 15.3 WNW 16 25 1008.9 - 0.0 - - - - - - -
04/07:16am 15.4 WNW 16 26 1008.8 - 0.0 - - - - - - -
04/07:00am 15.2 WNW 14 21 1008.6 - 0.0 - - - - - - -
04/06:30am 14.9 WNW 11 17 1008.6 - 0.0 - - - - - - -
04/06:00am 14.4 WNW 11 17 1008.7 - 0.0 - - - - - - -
04/05:30am 14.2 WNW 11 19 1008.8 - 0.0 - - - - - - -
04/05:00am 14.1 WNW 10 15 1009.0 - 0.0 - - - - - - -
04/04:30am 14.1 WNW 10 14 1009.2 - 0.0 - - - - - - -
04/04:00am 14.1 NW 8 12 1009.5 - 0.0 - - - - - - -
04/03:30am 13.8 WNW 9 13 1009.8 - 0.0 - - - - - - -
04/03:00am 13.7 WNW 9 12 1009.9 - 0.0 - - - - - - -
04/02:30am 13.5 WNW 8 11 1010.2 - 0.0 - - - - - - -
04/02:00am 14.2 WNW 13 17 1010.9 - 0.0 - - - - - - -
04/01:30am 14.1 WNW 13 17 1011.0 - 0.0 - - - - - - -

Other Formats:

Comma delimited format used in spreadsheet applications
http://www.bom.gov.au/fwo/IDT60701/IDT60701.94983.axf

JavaScript Object Notation format (JSON) in row-major order
http://www.bom.gov.au/fwo/IDT60701/IDT60701.94983.json